createdAt,value
2023-05-03T00:02:27.106Z,6.05
2023-05-03T00:04:54.615Z,5.65
2023-05-03T00:07:22.923Z,6.25
2023-05-03T00:09:50.537Z,5.35
2023-05-03T00:12:18.444Z,5.70
2023-05-03T00:14:46.351Z,6.03
2023-05-03T00:17:14.553Z,6.32
2023-05-03T00:19:42.557Z,6.43
2023-05-03T00:22:10.090Z,7.25
2023-05-03T00:24:37.824Z,5.93
2023-05-03T00:27:05.635Z,6.30
2023-05-03T00:29:33.504Z,6.30
2023-05-03T00:32:02.410Z,6.25
2023-05-03T00:34:29.775Z,5.95
2023-05-03T00:36:57.186Z,6.32
2023-05-03T00:39:24.577Z,6.90
2023-05-03T00:41:57.947Z,5.30
2023-05-03T00:44:25.895Z,5.82
2023-05-03T00:46:53.703Z,6.40
2023-05-03T00:49:21.827Z,6.97
2023-05-03T00:51:49.727Z,6.55
2023-05-03T00:54:17.727Z,6.13
2023-05-03T00:56:51.651Z,6.53
2023-05-03T00:59:20.359Z,6.47
2023-05-03T01:01:53.063Z,7.90
2023-05-03T01:04:22.131Z,6.82
2023-05-03T01:07:21.206Z,6.30
2023-05-03T01:10:21.527Z,5.63
2023-05-03T01:13:13.097Z,7.07
2023-05-03T01:15:40.428Z,9.20
2023-05-03T01:18:12.596Z,7.10
2023-05-03T01:23:14.559Z,6.63
2023-05-03T01:25:42.191Z,6.95
2023-05-03T01:28:09.650Z,7.65
2023-05-03T01:30:38.701Z,6.53
2023-05-03T01:33:22.783Z,8.02
2023-05-03T01:36:13.089Z,7.18
2023-05-03T01:38:40.677Z,7.07
2023-05-03T01:41:11.664Z,6.47
2023-05-03T01:43:40.328Z,6.88
2023-05-03T01:46:08.337Z,6.78
2023-05-03T01:48:36.124Z,5.93
2023-05-03T01:51:03.537Z,8.02
2023-05-03T01:53:30.819Z,7.15
2023-05-03T01:55:58.592Z,7.85
2023-05-03T01:58:25.957Z,6.63
2023-05-03T02:00:53.597Z,7.13
2023-05-03T02:03:21.187Z,7.00
2023-05-03T02:05:49.730Z,7.68
2023-05-03T02:08:17.034Z,6.93
2023-05-03T02:10:44.747Z,6.43
2023-05-03T02:13:12.109Z,6.63
2023-05-03T02:15:39.398Z,7.00
2023-05-03T02:18:08.638Z,9.00
2023-05-03T02:20:37.907Z,6.57
2023-05-03T02:23:05.222Z,7.95
2023-05-03T02:25:32.621Z,7.55
2023-05-03T02:28:01.096Z,6.47
2023-05-03T02:30:29.039Z,6.78
2023-05-03T02:32:56.918Z,6.20
2023-05-03T02:35:24.350Z,7.13
2023-05-03T02:37:51.692Z,6.60
2023-05-03T02:40:19.461Z,7.30
2023-05-03T02:42:48.221Z,7.07
2023-05-03T02:45:23.168Z,7.07
2023-05-03T02:47:50.482Z,6.25
2023-05-03T02:50:18.662Z,6.80
2023-05-03T02:52:46.317Z,7.07
2023-05-03T02:55:13.806Z,6.95
2023-05-03T02:57:43.359Z,6.30
2023-05-03T03:00:16.070Z,6.47
2023-05-03T03:02:44.508Z,7.28
2023-05-03T03:05:12.656Z,7.13
2023-05-03T03:07:42.461Z,7.10
2023-05-03T03:10:10.196Z,6.10
2023-05-03T03:12:38.605Z,7.05
2023-05-03T03:15:10.181Z,7.85
2023-05-03T03:17:40.396Z,7.07
2023-05-03T03:20:14.115Z,7.85
2023-05-03T03:22:45.603Z,6.00
2023-05-03T03:25:13.277Z,6.70
2023-05-03T03:27:40.796Z,7.45
2023-05-03T03:30:09.259Z,6.82
2023-05-03T03:32:42.832Z,6.72
2023-05-03T03:35:16.621Z,6.93
2023-05-03T03:37:44.363Z,6.75
2023-05-03T03:40:12.841Z,7.00
2023-05-03T03:42:40.830Z,6.65
2023-05-03T03:45:08.897Z,6.25
2023-05-03T03:47:36.352Z,7.78
2023-05-03T03:50:04.352Z,7.32
2023-05-03T03:52:33.675Z,6.80
2023-05-03T03:55:01.140Z,6.57
2023-05-03T03:57:30.420Z,7.50
2023-05-03T03:59:59.351Z,7.60
2023-05-03T04:02:28.874Z,7.85
2023-05-03T04:04:56.212Z,8.88
2023-05-03T04:07:23.686Z,8.25
2023-05-03T04:09:51.033Z,8.13
2023-05-03T04:12:19.442Z,8.90
2023-05-03T04:14:47.036Z,8.35
2023-05-03T04:17:14.481Z,7.93
2023-05-03T04:19:44.746Z,9.00
2023-05-03T04:22:13.535Z,9.10
2023-05-03T04:24:41.828Z,8.57
2023-05-03T04:27:10.155Z,8.77
2023-05-03T04:29:39.812Z,9.40
2023-05-03T04:32:08.400Z,8.48
2023-05-03T04:34:37.713Z,8.40
2023-05-03T04:37:06.425Z,9.05
2023-05-03T04:39:34.487Z,9.52
2023-05-03T04:42:02.862Z,9.98
2023-05-03T04:44:30.464Z,9.90
2023-05-03T04:46:59.821Z,8.77
2023-05-03T04:49:29.272Z,9.40
2023-05-03T04:51:57.353Z,9.35
2023-05-03T04:54:26.457Z,10.05
2023-05-03T04:56:55.359Z,9.13
2023-05-03T04:59:23.226Z,10.38
2023-05-03T05:01:50.817Z,9.57
2023-05-03T05:04:18.356Z,10.50
2023-05-03T05:06:52.385Z,10.95
2023-05-03T05:09:27.703Z,12.32
2023-05-03T05:11:58.019Z,12.63
2023-05-03T05:14:31.301Z,12.88
2023-05-03T05:16:59.218Z,13.82
2023-05-03T05:19:27.542Z,15.30
2023-05-03T05:21:55.656Z,13.50
2023-05-03T05:24:27.083Z,13.95
2023-05-03T05:26:54.933Z,13.25
2023-05-03T05:29:22.406Z,13.60
2023-05-03T05:31:50.122Z,14.13
2023-05-03T05:34:17.755Z,13.80
2023-05-03T05:36:45.668Z,14.88
2023-05-03T05:39:14.055Z,13.00
2023-05-03T05:41:41.481Z,15.05
2023-05-03T05:44:09.599Z,14.57
2023-05-03T05:46:36.906Z,14.65
2023-05-03T05:49:04.820Z,13.50
2023-05-03T05:51:33.413Z,15.10
2023-05-03T05:54:00.698Z,14.57
2023-05-03T05:56:28.753Z,15.32
2023-05-03T05:58:57.185Z,14.60
2023-05-03T06:01:27.077Z,15.63
2023-05-03T06:03:56.487Z,15.77
2023-05-03T06:06:25.448Z,15.35
2023-05-03T06:08:53.374Z,13.50
2023-05-03T06:11:21.927Z,16.00
2023-05-03T06:13:49.788Z,14.70
2023-05-03T06:16:19.111Z,14.88
2023-05-03T06:18:46.545Z,15.52
2023-05-03T06:21:15.582Z,15.63
2023-05-03T06:23:43.415Z,15.48
2023-05-03T06:26:13.962Z,17.02
2023-05-03T06:28:43.837Z,14.32
2023-05-03T06:31:11.781Z,16.00
2023-05-03T06:33:39.699Z,14.98
2023-05-03T06:36:08.165Z,15.57
2023-05-03T06:38:37.222Z,14.93
2023-05-03T06:41:13.768Z,15.02
2023-05-03T06:43:41.323Z,13.87
2023-05-03T06:46:08.805Z,16.35
2023-05-03T06:48:36.592Z,13.27
2023-05-03T06:51:05.433Z,14.07
2023-05-03T06:53:32.791Z,13.10
2023-05-03T06:56:00.627Z,13.05
2023-05-03T06:58:28.039Z,13.10
2023-05-03T07:00:55.324Z,13.48
2023-05-03T07:03:23.614Z,13.00
2023-05-03T07:05:51.635Z,12.88
2023-05-03T07:08:18.875Z,13.10
2023-05-03T07:10:46.741Z,11.02
2023-05-03T07:13:14.299Z,15.68
2023-05-03T07:15:41.722Z,11.32
2023-05-03T07:18:09.222Z,11.57
2023-05-03T07:20:36.766Z,11.55
2023-05-03T07:23:08.145Z,11.38
2023-05-03T07:25:35.721Z,11.55
2023-05-03T07:28:03.473Z,9.18
2023-05-03T07:30:30.923Z,11.63
2023-05-03T07:32:58.878Z,11.43
2023-05-03T07:38:28.521Z,11.05
2023-05-03T07:40:56.011Z,10.00
2023-05-03T07:43:23.819Z,8.88
2023-05-03T07:45:51.648Z,9.93
2023-05-03T07:48:21.768Z,10.82
2023-05-03T07:50:49.555Z,9.27
2023-05-03T07:53:17.162Z,8.77
2023-05-03T07:55:44.577Z,7.97
2023-05-03T07:58:13.567Z,9.68
2023-05-03T08:00:41.240Z,7.70
2023-05-03T08:03:10.493Z,8.27
2023-05-03T08:05:38.736Z,9.02
2023-05-03T08:08:06.552Z,8.00
2023-05-03T08:10:37.777Z,9.27
2023-05-03T08:13:13.001Z,8.90
2023-05-03T08:15:40.767Z,8.23
2023-05-03T08:18:09.100Z,8.85
2023-05-03T08:20:37.187Z,8.70
2023-05-03T08:23:09.073Z,9.38
2023-05-03T08:25:37.271Z,9.90
2023-05-03T08:30:52.667Z,9.60
2023-05-03T08:33:29.288Z,7.78
2023-05-03T08:35:57.109Z,8.98
2023-05-03T08:45:02.601Z,10.65
2023-05-03T08:48:33.054Z,10.43
2023-05-03T08:51:35.666Z,9.25
2023-05-03T08:54:12.728Z,9.63
2023-05-03T08:56:51.056Z,9.88
2023-05-03T08:59:22.197Z,11.00
2023-05-03T09:06:19.366Z,9.45
2023-05-03T09:08:50.450Z,8.95
2023-05-03T09:11:59.258Z,7.80
2023-05-03T09:18:19.761Z,9.00
2023-05-03T09:24:24.042Z,9.40
2023-05-03T09:26:55.886Z,8.32
2023-05-03T09:29:38.168Z,6.72
2023-05-03T09:32:07.620Z,7.28
2023-05-03T09:34:45.712Z,8.18
2023-05-03T09:37:16.657Z,9.32
2023-05-03T09:39:46.285Z,5.38
2023-05-03T09:42:16.486Z,5.93
2023-05-03T09:44:58.610Z,6.38
2023-05-03T09:47:51.005Z,7.25
2023-05-03T09:54:45.088Z,7.13
2023-05-03T09:57:20.071Z,6.15
2023-05-03T09:59:57.208Z,4.05
2023-05-03T10:02:25.152Z,5.65
2023-05-03T10:05:13.262Z,6.43
2023-05-03T10:07:47.895Z,7.38
2023-05-03T10:13:50.713Z,6.20
2023-05-03T10:16:48.236Z,6.18
2023-05-03T10:22:33.392Z,7.65
2023-05-03T10:25:18.716Z,7.07
2023-05-03T10:27:49.181Z,6.82
2023-05-03T10:30:48.877Z,6.63
2023-05-03T10:33:16.944Z,7.10
2023-05-03T10:36:01.399Z,7.10
2023-05-03T10:38:30.673Z,6.95
2023-05-03T10:41:00.344Z,6.78
2023-05-03T10:43:42.664Z,6.03
2023-05-03T10:46:32.066Z,6.38
2023-05-03T10:49:23.073Z,5.63
2023-05-03T10:51:50.710Z,6.28
2023-05-03T10:54:19.711Z,5.13
2023-05-03T11:00:00.458Z,6.43
2023-05-03T11:02:40.781Z,6.55
2023-05-03T11:05:11.112Z,5.97
2023-05-03T11:07:41.319Z,5.55
2023-05-03T11:10:21.018Z,5.15
2023-05-03T11:12:49.092Z,6.05
2023-05-03T11:15:19.612Z,5.68
2023-05-03T11:17:47.385Z,6.47
2023-05-03T11:20:15.805Z,6.07
2023-05-03T11:22:43.374Z,6.65
2023-05-03T11:25:11.018Z,6.18
2023-05-03T11:27:41.767Z,6.53
2023-05-03T11:30:10.378Z,6.63
2023-05-03T11:32:41.039Z,7.25
2023-05-03T11:35:09.301Z,9.88
2023-05-03T11:37:40.228Z,7.07
2023-05-03T11:40:16.897Z,7.40
2023-05-03T11:42:59.103Z,6.88
2023-05-03T11:45:42.340Z,7.35
2023-05-03T11:48:10.523Z,8.50
2023-05-03T11:50:55.267Z,8.00
2023-05-03T11:53:29.350Z,7.70
2023-05-03T11:55:58.066Z,8.00
2023-05-03T11:58:26.784Z,6.20
2023-05-03T12:00:57.847Z,7.15
2023-05-03T12:03:31.645Z,7.95
2023-05-03T12:06:02.353Z,7.78
2023-05-03T12:08:37.916Z,6.50
2023-05-03T12:11:07.883Z,6.43
2023-05-03T12:13:39.856Z,5.68
2023-05-03T12:16:13.619Z,5.75
2023-05-03T12:18:58.056Z,7.05
2023-05-03T12:23:57.556Z,9.10
2023-05-03T12:26:26.438Z,8.55
2023-05-03T12:28:56.527Z,6.60
2023-05-03T12:31:24.700Z,7.63
2023-05-03T12:36:26.125Z,6.60
2023-05-03T12:38:56.607Z,7.53
2023-05-03T12:42:00.862Z,8.27
2023-05-03T12:44:17.078Z,7.10
2023-05-03T12:46:45.862Z,7.35
2023-05-03T12:49:15.146Z,8.95
2023-05-03T12:51:50.110Z,6.40
2023-05-03T12:54:27.913Z,7.28
2023-05-03T12:57:01.477Z,8.70
2023-05-03T12:59:41.099Z,8.30
2023-05-03T13:04:56.728Z,7.50
2023-05-03T13:07:29.522Z,7.95
2023-05-03T13:12:30.823Z,8.13
2023-05-03T13:14:58.719Z,7.15
2023-05-03T13:17:26.154Z,6.65
2023-05-03T13:19:53.550Z,8.02
2023-05-03T13:22:20.868Z,7.07
2023-05-03T13:24:48.415Z,8.43
2023-05-03T13:27:16.524Z,9.15
2023-05-03T13:29:46.146Z,9.80
2023-05-03T13:32:15.202Z,7.03
2023-05-03T13:34:42.540Z,7.72
2023-05-03T13:37:11.575Z,7.43
2023-05-03T13:39:38.970Z,8.63
2023-05-03T13:42:06.393Z,7.90
2023-05-03T13:44:33.721Z,8.65
2023-05-03T13:47:01.527Z,8.68
2023-05-03T13:49:28.897Z,8.52
2023-05-03T13:51:56.216Z,9.40
2023-05-03T13:54:23.796Z,9.45
2023-05-03T13:56:51.810Z,9.38
2023-05-03T13:59:19.243Z,8.30
2023-05-03T14:01:48.034Z,8.68
2023-05-03T14:04:15.698Z,9.32
2023-05-03T14:06:43.075Z,8.55
2023-05-03T14:09:10.810Z,7.68
2023-05-03T14:11:40.614Z,5.68
2023-05-03T14:14:08.094Z,15.00
2023-05-03T14:16:41.699Z,8.30
2023-05-03T14:19:12.983Z,6.78
2023-05-03T14:21:45.045Z,10.32
2023-05-03T14:24:12.436Z,7.78
2023-05-03T14:26:39.878Z,6.97
2023-05-03T14:29:07.457Z,8.57
2023-05-03T14:31:34.964Z,7.82
2023-05-03T14:34:02.682Z,7.65
2023-05-03T14:36:34.952Z,7.45
2023-05-03T14:39:04.254Z,7.43
2023-05-03T14:41:33.274Z,7.70
2023-05-03T14:44:01.137Z,7.05
2023-05-03T14:46:28.550Z,7.78
2023-05-03T14:48:56.008Z,6.60
2023-05-03T14:51:23.932Z,6.05
2023-05-03T14:53:51.497Z,6.65
2023-05-03T14:56:19.016Z,6.75
2023-05-03T14:58:46.422Z,5.07
2023-05-03T15:01:18.486Z,6.28
2023-05-03T15:03:46.644Z,6.50
2023-05-03T15:06:13.964Z,6.32
2023-05-03T15:08:41.364Z,6.95
2023-05-03T15:11:08.951Z,5.95
2023-05-03T15:13:36.325Z,6.03
2023-05-03T15:16:03.831Z,4.93
2023-05-03T15:18:31.869Z,4.88
2023-05-03T15:20:59.174Z,4.78
2023-05-03T15:23:26.894Z,5.85
2023-05-03T15:25:54.386Z,5.93
2023-05-03T15:28:23.236Z,4.82
2023-05-03T15:30:50.859Z,4.43
2023-05-03T15:33:19.698Z,4.72
2023-05-03T15:35:47.240Z,3.85
2023-05-03T15:38:14.705Z,3.63
2023-05-03T15:40:42.197Z,3.63
2023-05-03T15:43:09.737Z,4.82
2023-05-03T15:45:37.255Z,4.13
2023-05-03T15:48:04.876Z,3.72
2023-05-03T15:50:32.186Z,3.95
2023-05-03T15:52:59.502Z,4.50
2023-05-03T15:55:26.886Z,4.43
2023-05-03T15:57:54.351Z,3.03
2023-05-03T16:00:22.979Z,4.82
2023-05-03T16:02:50.418Z,4.22
2023-05-03T16:05:19.122Z,4.13
2023-05-03T16:07:46.901Z,5.85
2023-05-03T16:10:15.075Z,4.35
2023-05-03T16:12:42.882Z,5.10
2023-05-03T16:15:11.373Z,3.95
2023-05-03T16:17:39.064Z,4.78
2023-05-03T16:20:07.987Z,4.40
2023-05-03T16:22:35.396Z,4.47
2023-05-03T16:25:15.448Z,4.20
2023-05-03T16:27:42.888Z,4.85
2023-05-03T16:30:10.755Z,4.93
2023-05-03T16:32:38.236Z,4.25
2023-05-03T16:35:05.908Z,4.65
2023-05-03T16:37:36.070Z,7.07
2023-05-03T16:40:11.151Z,4.93
2023-05-03T16:42:39.556Z,6.45
2023-05-03T16:45:08.610Z,5.03
2023-05-03T16:47:39.553Z,6.60
2023-05-03T16:50:08.054Z,5.78
2023-05-03T16:52:39.825Z,6.88
2023-05-03T16:55:09.340Z,6.32
2023-05-03T16:57:37.480Z,6.68
2023-05-03T17:00:09.343Z,7.45
2023-05-03T17:02:38.841Z,7.93
2023-05-03T17:05:08.202Z,6.13
2023-05-03T17:07:35.877Z,6.93
2023-05-03T17:10:03.801Z,7.47
2023-05-03T17:12:31.760Z,7.32
2023-05-03T17:14:58.908Z,6.70
2023-05-03T17:17:26.243Z,6.63
2023-05-03T17:19:53.694Z,5.88
2023-05-03T17:22:21.304Z,6.90
2023-05-03T17:24:48.636Z,6.93
2023-05-03T17:27:16.277Z,6.10
2023-05-03T17:29:44.302Z,6.72
2023-05-03T17:32:12.280Z,8.65
2023-05-03T17:34:40.612Z,7.60
2023-05-03T17:37:08.726Z,7.43
2023-05-03T17:39:36.228Z,8.23
2023-05-03T17:42:06.834Z,9.77
2023-05-03T17:44:38.010Z,8.38
2023-05-03T17:47:15.267Z,9.40
2023-05-03T17:52:10.768Z,9.30
2023-05-03T17:54:39.675Z,9.10
2023-05-03T17:57:10.297Z,8.20
2023-05-03T17:59:37.905Z,8.77
2023-05-03T18:02:09.091Z,8.00
2023-05-03T18:04:46.797Z,7.32
2023-05-03T18:07:20.881Z,7.90
2023-05-03T18:09:48.630Z,6.47
2023-05-03T18:12:16.160Z,6.93
2023-05-03T18:14:43.998Z,7.35
2023-05-03T18:17:11.370Z,7.25
2023-05-03T18:19:43.653Z,7.50
2023-05-03T18:22:12.384Z,7.55
2023-05-03T18:24:43.803Z,7.10
2023-05-03T18:27:15.114Z,6.28
2023-05-03T18:29:43.146Z,6.55
2023-05-03T18:32:18.707Z,5.38
2023-05-03T18:34:45.982Z,5.72
2023-05-03T18:37:13.984Z,5.82
2023-05-03T18:39:41.527Z,5.78
2023-05-03T18:42:10.226Z,5.90
2023-05-03T18:44:39.636Z,5.75
2023-05-03T18:47:09.618Z,5.95
2023-05-03T18:49:39.740Z,6.25
2023-05-03T18:52:08.474Z,6.38
2023-05-03T18:54:41.766Z,5.40
2023-05-03T19:00:07.968Z,6.63
2023-05-03T19:02:36.254Z,5.40
2023-05-03T19:05:04.045Z,6.30
2023-05-03T19:07:35.487Z,4.88
2023-05-03T19:10:05.038Z,5.05
2023-05-03T19:12:33.406Z,4.68
2023-05-03T19:15:01.795Z,5.60
2023-05-03T19:17:29.665Z,5.45
2023-05-03T19:19:57.342Z,6.15
2023-05-03T19:22:24.905Z,6.25
2023-05-03T19:24:52.830Z,6.28
2023-05-03T19:27:20.805Z,6.35
2023-05-03T19:29:54.266Z,5.82
2023-05-03T19:32:21.595Z,4.35
2023-05-03T19:34:49.254Z,6.57
2023-05-03T19:37:16.926Z,5.85
2023-05-03T19:39:44.516Z,6.35
2023-05-03T19:42:12.368Z,6.97
2023-05-03T19:44:40.008Z,6.38
2023-05-03T19:47:07.404Z,6.70
2023-05-03T19:49:36.962Z,6.35
2023-05-03T19:52:05.869Z,6.22
2023-05-03T19:54:33.599Z,5.75
2023-05-03T19:57:06.215Z,7.30
2023-05-03T19:59:34.038Z,6.97
2023-05-03T20:02:01.923Z,7.22
2023-05-03T20:04:29.981Z,7.18
2023-05-03T20:06:57.853Z,7.05
2023-05-03T20:09:25.630Z,6.90
2023-05-03T20:11:58.804Z,6.30
2023-05-03T20:14:29.476Z,6.82
2023-05-03T20:16:59.636Z,6.03
2023-05-03T20:19:26.948Z,6.90
2023-05-03T20:21:54.423Z,5.50
2023-05-03T20:24:22.112Z,6.95
2023-05-03T20:26:50.671Z,5.53
2023-05-03T20:29:18.035Z,6.85
2023-05-03T20:31:48.211Z,5.88
2023-05-03T20:34:16.012Z,6.47
2023-05-03T20:36:43.274Z,6.03
2023-05-03T20:39:11.367Z,4.80
2023-05-03T20:41:38.618Z,4.38
2023-05-03T20:44:06.230Z,6.70
2023-05-03T20:46:35.470Z,4.20
2023-05-03T20:49:02.823Z,6.28
2023-05-03T20:51:30.320Z,5.95
2023-05-03T20:53:57.739Z,6.88
2023-05-03T20:56:25.476Z,6.53
2023-05-03T20:58:53.235Z,6.78
2023-05-03T21:01:23.015Z,6.55
2023-05-03T21:03:50.715Z,5.15
2023-05-03T21:06:18.492Z,7.10
2023-05-03T21:08:46.141Z,6.70
2023-05-03T21:11:13.300Z,6.05
2023-05-03T21:13:40.982Z,6.30
2023-05-03T21:16:09.592Z,6.57
2023-05-03T21:18:37.463Z,7.50
2023-05-03T21:21:04.790Z,6.70
2023-05-03T21:23:32.049Z,7.57
2023-05-03T21:25:59.316Z,6.75
2023-05-03T21:28:27.568Z,5.80
2023-05-03T21:30:55.054Z,6.28
2023-05-03T21:33:22.517Z,6.47
2023-05-03T21:35:49.838Z,6.13
2023-05-03T21:38:17.793Z,6.50
2023-05-03T21:40:47.038Z,7.10
2023-05-03T21:43:14.507Z,6.32
2023-05-03T21:45:43.303Z,7.03
2023-05-03T21:48:10.900Z,6.22
2023-05-03T21:50:39.322Z,7.53
2023-05-03T21:53:07.192Z,9.95
2023-05-03T21:55:34.544Z,7.43
2023-05-03T21:58:01.853Z,6.60
2023-05-03T22:00:29.296Z,6.30
2023-05-03T22:02:56.602Z,6.28
2023-05-03T22:05:24.516Z,7.93
2023-05-03T22:07:52.162Z,7.03
2023-05-03T22:10:19.479Z,8.13
2023-05-03T22:12:47.050Z,7.18
2023-05-03T22:15:14.963Z,7.47
2023-05-03T22:17:42.416Z,7.20
2023-05-03T22:20:10.671Z,7.60
2023-05-03T22:22:38.077Z,8.10
2023-05-03T22:25:06.453Z,7.97
2023-05-03T22:27:34.260Z,10.07
2023-05-03T22:30:02.138Z,8.55
2023-05-03T22:32:29.892Z,8.20
2023-05-03T22:34:57.026Z,8.50
2023-05-03T22:37:24.389Z,8.98
2023-05-03T22:39:51.687Z,9.43
2023-05-03T22:42:19.056Z,13.07
2023-05-03T22:44:46.327Z,10.18
2023-05-03T22:47:13.698Z,11.38
2023-05-03T22:49:43.262Z,12.10
2023-05-03T22:52:10.690Z,10.15
2023-05-03T22:54:38.016Z,9.13
2023-05-03T22:57:05.791Z,11.43
2023-05-03T22:59:33.048Z,9.40
2023-05-03T23:02:00.823Z,9.95
2023-05-03T23:04:28.018Z,9.35
2023-05-03T23:06:55.385Z,10.13
2023-05-03T23:09:22.681Z,8.90
2023-05-03T23:11:49.999Z,8.18
2023-05-03T23:14:17.653Z,8.35
2023-05-03T23:16:45.062Z,7.47
2023-05-03T23:19:12.412Z,8.98
2023-05-03T23:21:39.726Z,7.93
2023-05-03T23:24:07.828Z,8.43
2023-05-03T23:26:35.243Z,8.00
2023-05-03T23:29:03.806Z,8.50
2023-05-03T23:31:32.088Z,8.98
2023-05-03T23:34:04.956Z,9.93
2023-05-03T23:36:34.032Z,8.60
2023-05-03T23:39:01.476Z,8.43
2023-05-03T23:41:29.219Z,8.27
2023-05-03T23:43:56.420Z,9.75
2023-05-03T23:46:23.779Z,10.45
2023-05-03T23:48:51.166Z,7.32
2023-05-03T23:51:18.538Z,8.93
2023-05-03T23:53:46.019Z,9.88
2023-05-03T23:56:13.336Z,9.57
2023-05-03T23:58:40.672Z,10.10
